createdAt,value
2017-12-08T00:01:23.879Z,7.70
2017-12-08T00:03:51.778Z,7.70
2017-12-08T00:06:19.265Z,7.70
2017-12-08T00:08:46.742Z,7.70
2017-12-08T00:11:14.314Z,7.70
2017-12-08T00:13:41.926Z,7.70
2017-12-08T00:16:09.782Z,7.70
2017-12-08T00:18:37.346Z,7.80
2017-12-08T00:21:05.592Z,7.80
2017-12-08T00:23:33.394Z,7.80
2017-12-08T00:26:00.877Z,7.90
2017-12-08T00:28:28.730Z,7.90
2017-12-08T00:30:56.602Z,7.90
2017-12-08T00:33:24.082Z,7.90
2017-12-08T00:35:51.930Z,7.90
2017-12-08T00:38:19.426Z,7.90
2017-12-08T00:40:47.276Z,7.90
2017-12-08T00:43:14.766Z,7.90
2017-12-08T00:45:42.254Z,7.90
2017-12-08T00:48:09.755Z,7.90
2017-12-08T00:50:38.006Z,7.90
2017-12-08T00:53:05.761Z,7.80
2017-12-08T00:55:33.267Z,7.80
2017-12-08T00:58:01.138Z,7.80
2017-12-08T01:00:28.990Z,7.80
2017-12-08T01:02:56.880Z,7.90
2017-12-08T01:05:24.652Z,7.80
2017-12-08T01:07:52.146Z,7.80
2017-12-08T01:10:19.682Z,7.70
2017-12-08T01:12:47.487Z,7.70
2017-12-08T01:15:14.967Z,7.70
2017-12-08T01:17:44.091Z,7.70
2017-12-08T01:20:11.604Z,7.60
2017-12-08T01:22:39.442Z,7.60
2017-12-08T01:25:06.948Z,7.60
2017-12-08T01:27:34.438Z,7.60
2017-12-08T01:30:02.223Z,7.60
2017-12-08T01:32:29.702Z,7.60
2017-12-08T01:34:57.190Z,7.60
2017-12-08T01:37:25.595Z,7.60
2017-12-08T01:39:53.078Z,7.60
2017-12-08T01:42:21.360Z,7.60
2017-12-08T01:44:49.611Z,7.50
2017-12-08T01:47:17.090Z,7.50
2017-12-08T01:49:46.107Z,7.50
2017-12-08T01:52:14.703Z,7.60
2017-12-08T01:54:42.570Z,7.50
2017-12-08T01:57:10.444Z,7.60
2017-12-08T01:59:37.926Z,7.60
2017-12-08T02:02:05.418Z,7.60
2017-12-08T02:04:32.910Z,7.60
2017-12-08T02:07:00.430Z,7.50
2017-12-08T02:09:27.928Z,7.60
2017-12-08T02:11:55.616Z,7.60
2017-12-08T02:14:23.485Z,7.60
2017-12-08T02:16:51.354Z,7.50
2017-12-08T02:19:19.238Z,7.50
2017-12-08T02:21:46.716Z,7.40
2017-12-08T02:24:14.189Z,7.30
2017-12-08T02:26:41.882Z,7.30
2017-12-08T02:29:09.378Z,7.30
2017-12-08T02:31:36.938Z,7.20
2017-12-08T02:34:04.418Z,7.20
2017-12-08T02:36:32.118Z,7.20
2017-12-08T02:38:59.618Z,7.20
2017-12-08T02:41:28.031Z,7.20
2017-12-08T02:43:55.602Z,7.10
2017-12-08T02:46:23.086Z,7.10
2017-12-08T02:48:50.813Z,7.00
2017-12-08T02:51:18.475Z,7.00
2017-12-08T02:53:46.744Z,7.00
2017-12-08T02:56:15.537Z,7.00
2017-12-08T02:58:43.205Z,6.90
2017-12-08T03:01:10.682Z,6.90
2017-12-08T03:03:38.942Z,6.90
2017-12-08T03:06:07.205Z,6.90
2017-12-08T03:08:34.718Z,6.90
2017-12-08T03:11:02.206Z,6.90
2017-12-08T03:13:29.703Z,6.90
2017-12-08T03:15:57.200Z,6.90
2017-12-08T03:18:24.865Z,6.90
2017-12-08T03:20:52.371Z,6.90
2017-12-08T03:23:20.183Z,6.80
2017-12-08T03:25:47.686Z,6.70
2017-12-08T03:28:15.509Z,6.70
2017-12-08T03:30:43.377Z,6.60
2017-12-08T03:33:10.891Z,6.50
2017-12-08T03:35:38.718Z,6.50
2017-12-08T03:38:06.211Z,6.40
2017-12-08T03:40:33.726Z,6.40
2017-12-08T03:43:01.202Z,6.40
2017-12-08T03:45:29.450Z,6.30
2017-12-08T03:47:56.947Z,6.30
2017-12-08T03:50:25.210Z,6.20
2017-12-08T03:52:52.690Z,6.20
2017-12-08T03:55:21.270Z,6.20
2017-12-08T03:57:49.140Z,6.10
2017-12-08T04:00:17.014Z,6.10
2017-12-08T04:02:44.538Z,6.00
2017-12-08T04:05:12.346Z,5.90
2017-12-08T04:07:39.834Z,5.90
2017-12-08T04:10:07.354Z,5.80
2017-12-08T04:12:34.842Z,5.80
2017-12-08T04:15:02.602Z,5.70
2017-12-08T04:17:30.121Z,5.70
2017-12-08T04:19:57.610Z,5.60
2017-12-08T04:22:25.113Z,5.60
2017-12-08T04:24:52.631Z,5.50
2017-12-08T04:27:20.310Z,5.50
2017-12-08T04:29:47.794Z,5.50
2017-12-08T04:32:15.643Z,5.40
2017-12-08T04:34:43.136Z,5.40
2017-12-08T04:37:10.617Z,5.40
2017-12-08T04:39:38.133Z,5.30
2017-12-08T04:42:06.569Z,5.20
2017-12-08T04:44:34.056Z,5.20
2017-12-08T04:47:01.574Z,5.20
2017-12-08T04:49:29.062Z,5.20
2017-12-08T04:51:56.611Z,5.10
2017-12-08T04:54:24.125Z,5.10
2017-12-08T04:56:52.371Z,5.10
2017-12-08T04:59:19.858Z,5.00
2017-12-08T05:01:48.455Z,5.00
2017-12-08T05:04:15.950Z,5.00
2017-12-08T05:06:43.791Z,5.00
2017-12-08T05:09:12.070Z,4.90
2017-12-08T05:11:39.869Z,4.90
2017-12-08T05:14:07.358Z,4.90
2017-12-08T05:16:34.870Z,4.80
2017-12-08T05:19:02.355Z,4.80
2017-12-08T05:21:29.841Z,4.80
2017-12-08T05:23:57.430Z,4.70
2017-12-08T05:26:26.428Z,4.50
2017-12-08T05:28:53.925Z,4.50
2017-12-08T05:31:21.447Z,4.50
2017-12-08T05:33:50.444Z,4.40
2017-12-08T05:36:17.931Z,4.40
2017-12-08T05:38:46.219Z,4.40
2017-12-08T05:41:13.710Z,4.30
2017-12-08T05:43:41.412Z,4.30
2017-12-08T05:46:09.107Z,4.40
2017-12-08T05:48:36.777Z,4.30
2017-12-08T05:51:04.264Z,4.30
2017-12-08T05:53:31.779Z,4.30
2017-12-08T05:55:59.262Z,4.30
2017-12-08T05:58:27.510Z,4.30
2017-12-08T06:00:55.305Z,4.20
2017-12-08T06:03:22.802Z,4.20
2017-12-08T06:05:50.285Z,4.20
2017-12-08T06:08:17.794Z,4.20
2017-12-08T06:10:46.378Z,4.20
2017-12-08T06:13:13.854Z,4.10
2017-12-08T06:15:41.363Z,4.20
2017-12-08T06:18:09.175Z,4.10
2017-12-08T06:20:37.042Z,4.20
2017-12-08T06:23:04.549Z,4.10
2017-12-08T06:25:32.389Z,4.10
2017-12-08T06:28:00.242Z,4.10
2017-12-08T06:30:27.798Z,4.10
2017-12-08T06:32:55.583Z,4.00
2017-12-08T06:35:23.464Z,4.00
2017-12-08T06:37:50.952Z,4.00
2017-12-08T06:40:18.783Z,3.90
2017-12-08T06:42:46.273Z,3.90
2017-12-08T06:45:13.766Z,3.90
2017-12-08T06:47:41.262Z,3.90
2017-12-08T06:50:09.514Z,3.80
2017-12-08T06:52:37.019Z,3.80
2017-12-08T06:55:05.488Z,3.80
2017-12-08T06:57:33.109Z,3.70
2017-12-08T07:00:00.926Z,3.80
2017-12-08T07:02:28.811Z,3.80
2017-12-08T07:04:56.298Z,3.80
2017-12-08T07:07:24.133Z,3.80
2017-12-08T07:09:52.004Z,3.80
2017-12-08T07:12:19.476Z,3.70
2017-12-08T07:14:47.003Z,3.80
2017-12-08T07:17:14.602Z,3.80
2017-12-08T07:19:42.101Z,3.80
2017-12-08T07:22:09.726Z,3.80
2017-12-08T07:24:37.506Z,3.80
2017-12-08T07:27:05.094Z,3.80
2017-12-08T07:29:32.588Z,3.80
2017-12-08T07:32:00.391Z,3.80
2017-12-08T07:34:27.887Z,3.80
2017-12-08T07:36:55.384Z,3.80
2017-12-08T07:39:22.872Z,3.80
2017-12-08T07:41:51.155Z,3.80
2017-12-08T07:44:19.403Z,3.80
2017-12-08T07:46:46.891Z,3.80
2017-12-08T07:49:15.159Z,3.90
2017-12-08T07:51:42.942Z,3.80
2017-12-08T07:54:10.445Z,3.90
2017-12-08T07:56:37.935Z,3.90
2017-12-08T07:59:05.747Z,3.90
2017-12-08T08:01:33.243Z,3.90
2017-12-08T08:04:00.722Z,3.90
2017-12-08T08:06:28.538Z,3.90
2017-12-08T08:08:56.075Z,4.00
2017-12-08T08:11:23.565Z,4.20
2017-12-08T08:13:51.842Z,4.80
2017-12-08T08:16:20.094Z,4.70
2017-12-08T08:18:47.890Z,4.70
2017-12-08T08:21:15.381Z,4.70
2017-12-08T08:23:43.226Z,5.10
2017-12-08T08:26:11.103Z,5.70
2017-12-08T08:28:38.598Z,6.20
2017-12-08T08:31:06.081Z,6.70
2017-12-08T08:33:33.950Z,6.80
2017-12-08T08:36:01.441Z,6.40
2017-12-08T08:38:29.718Z,5.60
2017-12-08T08:40:57.502Z,5.50
2017-12-08T08:43:25.243Z,5.30
2017-12-08T08:45:52.737Z,5.20
2017-12-08T08:48:20.226Z,5.00
2017-12-08T08:50:47.740Z,5.00
2017-12-08T08:53:15.218Z,5.00
2017-12-08T08:55:42.700Z,5.10
2017-12-08T08:58:10.202Z,5.30
2017-12-08T09:00:38.014Z,5.40
2017-12-08T09:03:05.530Z,5.50
2017-12-08T09:05:33.009Z,5.60
2017-12-08T09:08:00.499Z,5.60
2017-12-08T09:10:28.016Z,5.50
2017-12-08T09:12:55.728Z,5.50
2017-12-08T09:15:23.222Z,5.50
2017-12-08T09:17:51.070Z,5.50
2017-12-08T09:20:18.942Z,5.40
2017-12-08T09:22:46.430Z,5.40
2017-12-08T09:25:14.270Z,5.40
2017-12-08T09:27:42.153Z,5.40
2017-12-08T09:30:10.006Z,5.40
2017-12-08T09:32:37.874Z,5.50
2017-12-08T09:35:05.363Z,5.50
2017-12-08T09:37:33.210Z,5.60
2017-12-08T09:40:00.705Z,5.60
2017-12-08T09:42:28.187Z,5.70
2017-12-08T09:44:55.759Z,5.70
2017-12-08T09:47:23.262Z,5.70
2017-12-08T09:49:50.929Z,5.80
2017-12-08T09:52:18.417Z,5.80
2017-12-08T09:54:45.926Z,5.90
2017-12-08T09:57:13.415Z,6.00
2017-12-08T09:59:41.663Z,6.70
2017-12-08T10:02:09.464Z,6.70
2017-12-08T10:04:37.330Z,7.70
2017-12-08T10:07:05.207Z,8.60
2017-12-08T10:09:33.077Z,9.40
2017-12-08T10:12:00.943Z,9.90
2017-12-08T10:14:28.539Z,9.90
2017-12-08T10:16:56.114Z,9.50
2017-12-08T10:19:23.740Z,9.20
2017-12-08T10:21:51.214Z,8.90
2017-12-08T10:24:18.703Z,8.50
2017-12-08T10:26:46.194Z,8.10
2017-12-08T10:29:13.683Z,7.80
2017-12-08T10:31:41.942Z,7.30
2017-12-08T10:34:09.431Z,7.30
2017-12-08T10:36:37.696Z,6.80
2017-12-08T10:39:05.197Z,6.80
2017-12-08T10:41:32.891Z,6.70
2017-12-08T10:44:00.450Z,6.60
2017-12-08T10:46:28.283Z,6.50
2017-12-08T10:48:55.759Z,6.50
2017-12-08T10:51:23.355Z,6.40
2017-12-08T10:53:50.850Z,6.40
2017-12-08T10:56:19.354Z,6.30
2017-12-08T10:58:46.846Z,6.20
2017-12-08T11:01:14.340Z,6.20
2017-12-08T11:03:42.137Z,6.20
2017-12-08T11:06:09.634Z,6.10
2017-12-08T11:08:37.145Z,6.00
2017-12-08T11:11:04.935Z,5.90
2017-12-08T11:13:32.812Z,5.70
2017-12-08T11:16:00.305Z,5.50
2017-12-08T11:18:27.794Z,5.30
2017-12-08T11:20:55.279Z,5.20
2017-12-08T11:23:22.865Z,5.00
2017-12-08T11:25:50.534Z,4.90
2017-12-08T11:28:18.026Z,4.90
2017-12-08T11:30:45.851Z,4.90
2017-12-08T11:33:13.386Z,4.80
2017-12-08T11:35:40.868Z,4.80
2017-12-08T11:38:08.390Z,4.80
2017-12-08T11:40:35.874Z,4.80
2017-12-08T11:43:03.586Z,4.80
2017-12-08T11:45:31.122Z,4.90
2017-12-08T11:47:58.615Z,4.80
2017-12-08T11:50:26.114Z,4.80
2017-12-08T11:52:53.694Z,4.70
2017-12-08T11:55:21.175Z,4.70
2017-12-08T11:57:48.759Z,4.70
2017-12-08T12:00:16.275Z,4.60
2017-12-08T12:02:43.762Z,4.60
2017-12-08T12:05:11.932Z,4.60
2017-12-08T12:07:39.454Z,4.50
2017-12-08T12:10:06.933Z,4.60
2017-12-08T12:12:34.430Z,4.60
2017-12-08T12:15:02.737Z,4.60
2017-12-08T12:17:30.217Z,4.60
2017-12-08T12:19:57.958Z,4.70
2017-12-08T12:22:25.823Z,4.70
2017-12-08T12:24:53.695Z,4.90
2017-12-08T12:27:21.362Z,5.30
2017-12-08T12:29:49.033Z,6.40
2017-12-08T12:32:16.539Z,7.50
2017-12-08T12:34:44.377Z,8.30
2017-12-08T12:37:12.234Z,8.80
2017-12-08T12:39:40.106Z,9.20
2017-12-08T12:42:07.594Z,9.50
2017-12-08T12:44:35.113Z,9.80
2017-12-08T12:47:02.914Z,10.00
2017-12-08T12:49:30.398Z,10.30
2017-12-08T12:51:57.925Z,10.50
2017-12-08T12:54:26.187Z,10.50
2017-12-08T12:56:53.669Z,10.50
2017-12-08T12:59:22.118Z,9.30
2017-12-08T13:01:49.610Z,9.20
2017-12-08T13:04:17.186Z,9.20
2017-12-08T13:06:44.691Z,9.30
2017-12-08T13:09:12.523Z,9.60
2017-12-08T13:11:40.055Z,9.10
2017-12-08T13:14:07.542Z,8.80
2017-12-08T13:16:35.802Z,7.80
2017-12-08T13:19:04.065Z,7.30
2017-12-08T13:21:31.585Z,7.30
2017-12-08T13:23:59.341Z,6.90
2017-12-08T13:26:26.780Z,6.50
2017-12-08T13:28:54.249Z,6.10
2017-12-08T13:31:21.688Z,5.90
2017-12-08T13:33:49.133Z,5.80
2017-12-08T13:36:16.852Z,5.80
2017-12-08T13:38:44.535Z,5.80
2017-12-08T13:41:11.973Z,5.80
2017-12-08T13:43:39.458Z,5.70
2017-12-08T13:46:06.884Z,5.50
2017-12-08T13:48:34.317Z,5.50
2017-12-08T13:51:01.863Z,5.40
2017-12-08T13:53:41.020Z,5.30
2017-12-08T13:56:20.297Z,5.20
2017-12-08T13:58:47.985Z,5.30
2017-12-08T14:01:15.408Z,5.40
2017-12-08T14:03:43.232Z,5.40
2017-12-08T14:06:10.681Z,5.50
2017-12-08T14:08:38.148Z,5.50
2017-12-08T14:11:05.576Z,5.50
2017-12-08T14:13:33.105Z,5.40
2017-12-08T14:16:00.573Z,5.30
2017-12-08T14:18:28.005Z,5.20
2017-12-08T14:20:55.474Z,5.20
2017-12-08T14:23:22.920Z,5.10
2017-12-08T14:25:50.404Z,5.10
2017-12-08T14:28:17.872Z,5.10
2017-12-08T14:30:45.308Z,5.00
2017-12-08T14:33:13.072Z,5.00
2017-12-08T14:35:40.524Z,4.90
2017-12-08T14:38:08.103Z,4.80
2017-12-08T14:40:35.557Z,4.80
2017-12-08T14:43:03.022Z,4.70
2017-12-08T14:45:30.887Z,4.70
2017-12-08T14:47:58.353Z,4.70
2017-12-08T14:50:26.232Z,4.80
2017-12-08T14:52:54.545Z,4.90
2017-12-08T14:55:21.973Z,5.00
2017-12-08T14:57:49.425Z,5.00
2017-12-08T15:00:16.872Z,5.10
2017-12-08T15:02:44.308Z,5.10
2017-12-08T15:05:11.847Z,5.00
2017-12-08T15:07:39.276Z,4.90
2017-12-08T15:10:06.719Z,4.80
2017-12-08T15:12:34.165Z,4.80
2017-12-08T15:15:01.629Z,4.60
2017-12-08T15:17:29.087Z,4.60
2017-12-08T15:19:56.520Z,4.50
2017-12-08T15:22:23.960Z,4.40
2017-12-08T15:24:51.506Z,4.40
2017-12-08T15:27:18.950Z,4.30
2017-12-08T15:29:46.432Z,4.30
2017-12-08T15:32:13.869Z,4.20
2017-12-08T15:34:41.439Z,4.20
2017-12-08T15:37:08.881Z,4.10
2017-12-08T15:39:36.316Z,4.10
2017-12-08T15:42:03.793Z,4.10
2017-12-08T15:44:31.560Z,4.10
2017-12-08T15:46:59.005Z,4.10
2017-12-08T15:49:26.465Z,4.10
2017-12-08T15:51:53.892Z,4.20
2017-12-08T15:54:21.344Z,4.20
2017-12-08T15:56:48.934Z,4.30
2017-12-08T15:59:16.372Z,4.30
2017-12-08T16:01:43.877Z,4.30
2017-12-08T16:04:11.296Z,4.30
2017-12-08T16:06:38.802Z,4.20
2017-12-08T16:09:06.629Z,4.10
2017-12-08T16:11:34.086Z,4.00
2017-12-08T16:14:01.545Z,4.00
2017-12-08T16:16:29.024Z,3.90
2017-12-08T16:18:56.486Z,3.90
2017-12-08T16:21:23.928Z,3.80
2017-12-08T16:23:51.424Z,3.80
2017-12-08T16:26:18.910Z,3.70
2017-12-08T16:28:46.749Z,3.70
2017-12-08T16:31:14.218Z,3.60
2017-12-08T16:33:41.670Z,3.60
2017-12-08T16:36:09.130Z,3.50
2017-12-08T16:38:36.596Z,3.50
2017-12-08T16:41:04.033Z,3.50
2017-12-08T16:43:31.877Z,3.40
2017-12-08T16:45:59.360Z,3.40
2017-12-08T16:48:26.842Z,3.40
2017-12-08T16:50:54.333Z,3.40
2017-12-08T16:53:21.882Z,3.30
2017-12-08T16:55:49.357Z,3.40
2017-12-08T16:58:17.573Z,3.30
2017-12-08T17:00:45.019Z,3.30
2017-12-08T17:03:12.761Z,3.30
2017-12-08T17:05:40.261Z,3.30
2017-12-08T17:08:08.177Z,3.30
2017-12-08T17:10:35.629Z,3.30
2017-12-08T17:13:03.497Z,3.30
2017-12-08T17:15:30.996Z,3.20
2017-12-08T17:17:58.432Z,3.20
2017-12-08T17:20:25.889Z,3.20
2017-12-08T17:22:53.344Z,3.10
2017-12-08T17:25:20.801Z,3.10
2017-12-08T17:27:48.246Z,3.10
2017-12-08T17:30:15.756Z,3.10
2017-12-08T17:35:27.003Z,3.00
2017-12-08T17:37:54.494Z,3.00
2017-12-08T17:40:21.924Z,3.10
2017-12-08T17:42:49.366Z,3.00
2017-12-08T17:45:16.827Z,3.00
2017-12-08T17:47:44.284Z,3.00
2017-12-08T17:50:11.816Z,3.00
2017-12-08T17:52:39.257Z,3.00
2017-12-08T17:55:06.729Z,3.00
2017-12-08T17:57:34.210Z,3.00
2017-12-08T18:00:01.709Z,3.00
2017-12-08T18:02:29.143Z,3.00
2017-12-08T18:04:56.593Z,3.00
2017-12-08T18:07:24.434Z,3.00
2017-12-08T18:09:51.876Z,3.00
2017-12-08T18:12:19.329Z,3.00
2017-12-08T18:14:46.752Z,3.00
2017-12-08T18:17:14.201Z,3.00
2017-12-08T18:19:41.633Z,3.00
2017-12-08T18:22:09.086Z,3.00
2017-12-08T18:24:36.557Z,3.00
2017-12-08T18:27:03.998Z,3.00
2017-12-08T18:29:31.432Z,3.00
2017-12-08T18:31:59.021Z,3.10
2017-12-08T18:34:26.604Z,3.20
2017-12-08T18:36:54.076Z,3.30
2017-12-08T18:39:21.501Z,3.30
2017-12-08T18:41:48.936Z,3.40
2017-12-08T18:44:16.757Z,3.50
2017-12-08T18:46:44.197Z,3.50
2017-12-08T18:49:11.715Z,3.50
2017-12-08T18:51:39.557Z,3.50
2017-12-08T18:54:07.024Z,3.50
2017-12-08T18:56:34.476Z,3.60
2017-12-08T18:59:01.926Z,3.60
2017-12-08T19:01:29.386Z,3.50
2017-12-08T19:03:56.844Z,3.50
2017-12-08T19:06:24.296Z,3.50
2017-12-08T19:08:51.797Z,3.40
2017-12-08T19:11:19.276Z,3.40
2017-12-08T19:13:46.741Z,3.30
2017-12-08T19:16:14.584Z,3.40
2017-12-08T19:18:42.014Z,3.30
2017-12-08T19:21:09.788Z,3.30
2017-12-08T19:23:37.218Z,3.30
2017-12-08T19:26:04.681Z,3.30
2017-12-08T19:28:32.100Z,3.30
2017-12-08T19:30:59.769Z,3.30
2017-12-08T19:33:27.229Z,3.30
2017-12-08T19:35:54.670Z,3.20
2017-12-08T19:38:22.130Z,3.10
2017-12-08T19:40:49.561Z,3.10
2017-12-08T19:43:17.084Z,3.00
2017-12-08T19:45:44.534Z,2.90
2017-12-08T19:48:12.012Z,2.90
2017-12-08T19:50:39.489Z,2.80
2017-12-08T19:53:06.933Z,2.80
2017-12-08T19:55:34.805Z,2.70
2017-12-08T19:58:02.253Z,2.70
2017-12-08T20:00:29.701Z,2.70
2017-12-08T20:02:57.154Z,2.60
2017-12-08T20:05:24.594Z,2.60
2017-12-08T20:07:52.025Z,2.60
2017-12-08T20:10:19.588Z,2.60
2017-12-08T20:12:47.032Z,2.50
2017-12-08T20:15:14.513Z,2.50
2017-12-08T20:17:42.032Z,2.40
2017-12-08T20:20:09.808Z,2.40
2017-12-08T20:22:37.299Z,2.30
2017-12-08T20:25:04.732Z,2.30
2017-12-08T20:27:32.250Z,2.20
2017-12-08T20:30:00.444Z,2.20
2017-12-08T20:32:27.887Z,2.10
2017-12-08T20:34:55.344Z,2.10
2017-12-08T20:37:22.885Z,2.10
2017-12-08T20:39:50.370Z,2.10
2017-12-08T20:42:18.210Z,2.00
2017-12-08T20:44:45.704Z,2.00
2017-12-08T20:47:13.533Z,2.00
2017-12-08T20:49:40.961Z,2.00
2017-12-08T20:52:08.874Z,2.00
2017-12-08T20:54:36.313Z,2.00
2017-12-08T20:57:03.859Z,1.90
2017-12-08T20:59:31.659Z,1.80
2017-12-08T21:01:59.132Z,1.80
2017-12-08T21:04:26.991Z,1.80
2017-12-08T21:06:54.430Z,1.80
2017-12-08T21:09:21.944Z,1.70
2017-12-08T21:11:49.399Z,1.70
2017-12-08T21:14:16.852Z,1.70
2017-12-08T21:16:44.380Z,1.70
2017-12-08T21:19:11.855Z,1.60
2017-12-08T21:21:39.271Z,1.60
2017-12-08T21:24:07.088Z,1.60
2017-12-08T21:26:34.519Z,1.50
2017-12-08T21:29:02.922Z,1.50
2017-12-08T21:31:30.380Z,1.50
2017-12-08T21:33:57.814Z,1.50
2017-12-08T21:36:25.267Z,1.50
2017-12-08T21:38:52.710Z,1.40
2017-12-08T21:41:20.176Z,1.40
2017-12-08T21:43:47.620Z,1.40
2017-12-08T21:46:15.061Z,1.40
2017-12-08T21:48:42.553Z,1.40
2017-12-08T21:51:10.433Z,1.40
2017-12-08T21:53:38.276Z,1.40
2017-12-08T21:56:05.743Z,1.40
2017-12-08T21:58:33.617Z,1.40
2017-12-08T22:01:01.057Z,1.40
2017-12-08T22:03:28.552Z,1.40
2017-12-08T22:05:56.021Z,1.40
2017-12-08T22:08:23.464Z,1.30
2017-12-08T22:10:50.916Z,1.30
2017-12-08T22:13:18.393Z,1.30
2017-12-08T22:15:45.851Z,1.30
2017-12-08T22:18:13.318Z,1.30
2017-12-08T22:20:41.165Z,1.30
2017-12-08T22:23:08.620Z,1.30
2017-12-08T22:25:36.077Z,1.30
2017-12-08T22:28:03.512Z,1.30
2017-12-08T22:30:30.988Z,1.40
2017-12-08T22:32:58.421Z,1.40
2017-12-08T22:35:25.858Z,1.40
2017-12-08T22:37:53.310Z,1.40
2017-12-08T22:40:20.851Z,1.50
2017-12-08T22:42:48.320Z,1.50
2017-12-08T22:45:15.745Z,1.50
2017-12-08T22:47:43.181Z,1.60
2017-12-08T22:50:10.704Z,1.60
2017-12-08T22:52:38.141Z,1.60
2017-12-08T22:55:05.617Z,1.70
2017-12-08T22:57:33.099Z,1.70
2017-12-08T23:00:00.489Z,1.70
2017-12-08T23:02:27.934Z,1.80
2017-12-08T23:04:55.377Z,1.80
2017-12-08T23:07:22.840Z,1.80
2017-12-08T23:09:50.281Z,1.80
2017-12-08T23:12:17.863Z,1.90
2017-12-08T23:14:45.341Z,1.90
2017-12-08T23:17:12.780Z,2.00
2017-12-08T23:19:40.237Z,1.90
2017-12-08T23:22:07.688Z,2.00
2017-12-08T23:24:35.154Z,2.00
2017-12-08T23:27:02.653Z,1.90
2017-12-08T23:29:30.477Z,1.90
2017-12-08T23:31:58.351Z,1.90
2017-12-08T23:34:25.834Z,1.90
2017-12-08T23:36:53.264Z,1.90
2017-12-08T23:39:20.713Z,1.90
2017-12-08T23:41:48.272Z,1.90
2017-12-08T23:44:15.748Z,2.00
2017-12-08T23:46:43.193Z,1.90
2017-12-08T23:49:10.640Z,1.90
2017-12-08T23:51:38.456Z,2.00
2017-12-08T23:54:05.924Z,1.90
2017-12-08T23:56:33.388Z,1.90
2017-12-08T23:59:00.836Z,2.00
